sensor_id;sensor_type;location;lat;lon;timestamp;pressure;altitude;pressure_sealevel;temperature;humidity
55044;BME280;54902;50.420;18.854;2024-03-08T00:00:29;101992.28;;;-0.17;75.72
55044;BME280;54902;50.420;18.854;2024-03-08T00:01:03;102001.20;;;-0.16;75.71
55044;BME280;54902;50.420;18.854;2024-03-08T00:01:34;101991.38;;;-0.17;75.71
55044;BME280;54902;50.420;18.854;2024-03-08T00:02:05;101996.78;;;-0.19;75.73
55044;BME280;54902;50.420;18.854;2024-03-08T00:02:36;101993.18;;;-0.18;75.74
55044;BME280;54902;50.420;18.854;2024-03-08T00:03:07;101994.10;;;-0.19;75.75
55044;BME280;54902;50.420;18.854;2024-03-08T00:03:40;101994.10;;;-0.19;75.78
55044;BME280;54902;50.420;18.854;2024-03-08T00:04:11;101994.10;;;-0.19;75.78
55044;BME280;54902;50.420;18.854;2024-03-08T00:04:42;101992.32;;;-0.20;75.79
55044;BME280;54902;50.420;18.854;2024-03-08T00:05:14;101986.95;;;-0.20;75.80
55044;BME280;54902;50.420;18.854;2024-03-08T00:05:45;101985.22;;;-0.21;75.80
55044;BME280;54902;50.420;18.854;2024-03-08T00:06:15;101990.58;;;-0.21;75.82
55044;BME280;54902;50.420;18.854;2024-03-08T00:06:46;101989.71;;;-0.23;75.84
55044;BME280;54902;50.420;18.854;2024-03-08T00:07:18;101992.40;;;-0.23;75.84
55044;BME280;54902;50.420;18.854;2024-03-08T00:07:49;101989.71;;;-0.23;75.84
55044;BME280;54902;50.420;18.854;2024-03-08T00:08:20;101983.47;;;-0.23;75.85
55044;BME280;54902;50.420;18.854;2024-03-08T00:08:50;101988.84;;;-0.23;75.83
55044;BME280;54902;50.420;18.854;2024-03-08T00:09:21;101988.88;;;-0.25;75.84
55044;BME280;54902;50.420;18.854;2024-03-08T00:09:52;101986.19;;;-0.26;75.83
55044;BME280;54902;50.420;18.854;2024-03-08T00:10:23;101987.10;;;-0.26;75.85
55044;BME280;54902;50.420;18.854;2024-03-08T00:10:54;101989.78;;;-0.26;75.85
55044;BME280;54902;50.420;18.854;2024-03-08T00:11:25;101993.34;;;-0.25;75.85
55044;BME280;54902;50.420;18.854;2024-03-08T00:11:56;101990.70;;;-0.27;75.84
55044;BME280;54902;50.420;18.854;2024-03-08T00:12:27;101986.19;;;-0.26;75.83
55044;BME280;54902;50.420;18.854;2024-03-08T00:12:58;101995.19;;;-0.27;75.82
55044;BME280;54902;50.420;18.854;2024-03-08T00:13:29;101991.60;;;-0.28;75.83
55044;BME280;54902;50.420;18.854;2024-03-08T00:13:59;101988.05;;;-0.28;75.80
55044;BME280;54902;50.420;18.854;2024-03-08T00:14:30;101992.51;;;-0.29;75.79
55044;BME280;54902;50.420;18.854;2024-03-08T00:15:01;101994.28;;;-0.28;75.80
55044;BME280;54902;50.420;18.854;2024-03-08T00:15:32;101993.41;;;-0.28;75.78
55044;BME280;54902;50.420;18.854;2024-03-08T00:16:03;101997.87;;;-0.29;75.78
55044;BME280;54902;50.420;18.854;2024-03-08T00:16:34;101990.77;;;-0.30;75.79
55044;BME280;54902;50.420;18.854;2024-03-08T00:17:05;101987.18;;;-0.30;75.79
55044;BME280;54902;50.420;18.854;2024-03-08T00:17:36;101993.48;;;-0.31;75.78
55044;BME280;54902;50.420;18.854;2024-03-08T00:18:08;101989.86;;;-0.30;75.78
55044;BME280;54902;50.420;18.854;2024-03-08T00:18:40;101992.58;;;-0.32;75.77
55044;BME280;54902;50.420;18.854;2024-03-08T00:19:12;101986.30;;;-0.31;75.79
55044;BME280;54902;50.420;18.854;2024-03-08T00:19:42;101988.12;;;-0.33;75.79
55044;BME280;54902;50.420;18.854;2024-03-08T00:20:14;101985.43;;;-0.33;75.79
55044;BME280;54902;50.420;18.854;2024-03-08T00:20:45;101993.49;;;-0.33;75.78
55044;BME280;54902;50.420;18.854;2024-03-08T00:21:15;101989.05;;;-0.34;75.78
55044;BME280;54902;50.420;18.854;2024-03-08T00:21:46;101983.70;;;-0.34;75.79
55044;BME280;54902;50.420;18.854;2024-03-08T00:22:17;101976.55;;;-0.35;75.76
55044;BME280;54902;50.420;18.854;2024-03-08T00:22:48;101987.28;;;-0.35;75.77
55044;BME280;54902;50.420;18.854;2024-03-08T00:23:19;101981.05;;;-0.35;75.76
55044;BME280;54902;50.420;18.854;2024-03-08T00:23:49;101980.14;;;-0.36;75.75
55044;BME280;54902;50.420;18.854;2024-03-08T00:24:20;101984.63;;;-0.36;75.77
55044;BME280;54902;50.420;18.854;2024-03-08T00:24:56;101982.86;;;-0.37;75.77
55044;BME280;54902;50.420;18.854;2024-03-08T00:25:26;101988.23;;;-0.37;75.74
55044;BME280;54902;50.420;18.854;2024-03-08T00:25:58;101991.82;;;-0.38;75.75
55044;BME280;54902;50.420;18.854;2024-03-08T00:26:28;101971.26;;;-0.39;75.75
55044;BME280;54902;50.420;18.854;2024-03-08T00:27:00;101978.44;;;-0.40;75.74
55044;BME280;54902;50.420;18.854;2024-03-08T00:27:32;101982.03;;;-0.41;75.74
55044;BME280;54902;50.420;18.854;2024-03-08T00:28:04;101985.65;;;-0.42;75.73
55044;BME280;54902;50.420;18.854;2024-03-08T00:28:36;101980.29;;;-0.42;75.72
55044;BME280;54902;50.420;18.854;2024-03-08T00:29:07;101981.20;;;-0.43;75.72
55044;BME280;54902;50.420;18.854;2024-03-08T00:29:38;101982.10;;;-0.44;75.73
55044;BME280;54902;50.420;18.854;2024-03-08T00:30:11;101980.33;;;-0.45;75.73
55044;BME280;54902;50.420;18.854;2024-03-08T00:30:45;101980.33;;;-0.45;75.72
55044;BME280;54902;50.420;18.854;2024-03-08T00:31:17;101989.31;;;-0.46;75.74
55044;BME280;54902;50.420;18.854;2024-03-08T00:31:47;101983.95;;;-0.46;75.74
55044;BME280;54902;50.420;18.854;2024-03-08T00:32:18;101981.27;;;-0.47;75.73
55044;BME280;54902;50.420;18.854;2024-03-08T00:32:49;101983.99;;;-0.49;75.72
55044;BME280;54902;50.420;18.854;2024-03-08T00:33:20;101989.36;;;-0.49;75.72
55044;BME280;54902;50.420;18.854;2024-03-08T00:33:51;101984.02;;;-0.50;75.72
55044;BME280;54902;50.420;18.854;2024-03-08T00:34:23;101986.70;;;-0.50;75.73
55044;BME280;54902;50.420;18.854;2024-03-08T00:34:55;101984.05;;;-0.52;75.73
55044;BME280;54902;50.420;18.854;2024-03-08T00:35:25;101986.78;;;-0.53;75.72
55044;BME280;54902;50.420;18.854;2024-03-08T00:35:56;101985.87;;;-0.54;75.71
55044;BME280;54902;50.420;18.854;2024-03-08T00:36:27;101989.46;;;-0.53;75.72
55044;BME280;54902;50.420;18.854;2024-03-08T00:37:00;101984.13;;;-0.55;75.72
55044;BME280;54902;50.420;18.854;2024-03-08T00:37:31;101984.16;;;-0.58;75.72
55044;BME280;54902;50.420;18.854;2024-03-08T00:38:02;101978.80;;;-0.56;75.74
55044;BME280;54902;50.420;18.854;2024-03-08T00:38:33;101988.62;;;-0.57;75.76
55044;BME280;54902;50.420;18.854;2024-03-08T00:39:04;101985.10;;;-0.58;75.73
55044;BME280;54902;50.420;18.854;2024-03-08T00:39:37;101986.88;;;-0.59;75.74
55044;BME280;54902;50.420;18.854;2024-03-08T00:40:08;101983.33;;;-0.59;75.73
55044;BME280;54902;50.420;18.854;2024-03-08T00:40:42;101977.96;;;-0.59;75.81
55044;BME280;54902;50.420;18.854;2024-03-08T00:41:13;101988.70;;;-0.59;75.75
55044;BME280;54902;50.420;18.854;2024-03-08T00:41:43;101985.13;;;-0.60;75.73
55044;BME280;54902;50.420;18.854;2024-03-08T00:42:15;101988.73;;;-0.61;75.74
55044;BME280;54902;50.420;18.854;2024-03-08T00:42:47;101988.73;;;-0.61;75.74
55044;BME280;54902;50.420;18.854;2024-03-08T00:43:18;101993.18;;;-0.61;75.75
55044;BME280;54902;50.420;18.854;2024-03-08T00:43:48;101991.45;;;-0.62;75.76
55044;BME280;54902;50.420;18.854;2024-03-08T00:44:19;101977.16;;;-0.64;75.76
55044;BME280;54902;50.420;18.854;2024-03-08T00:44:50;101979.84;;;-0.64;75.75
55044;BME280;54902;50.420;18.854;2024-03-08T00:45:21;101982.52;;;-0.64;75.74
55044;BME280;54902;50.420;18.854;2024-03-08T00:45:54;101977.20;;;-0.66;75.76
55044;BME280;54902;50.420;18.854;2024-03-08T00:46:24;101988.80;;;-0.65;75.77
55044;BME280;54902;50.420;18.854;2024-03-08T00:46:55;101984.38;;;-0.66;75.76
55044;BME280;54902;50.420;18.854;2024-03-08T00:47:27;101981.69;;;-0.66;75.76
55044;BME280;54902;50.420;18.854;2024-03-08T00:47:57;101977.23;;;-0.67;75.77
55044;BME280;54902;50.420;18.854;2024-03-08T00:48:28;101979.91;;;-0.67;75.77
55044;BME280;54902;50.420;18.854;2024-03-08T00:48:59;101979.95;;;-0.69;75.78
55044;BME280;54902;50.420;18.854;2024-03-08T00:49:31;101981.73;;;-0.69;75.79
55044;BME280;54902;50.420;18.854;2024-03-08T00:50:02;101979.98;;;-0.70;75.77
55044;BME280;54902;50.420;18.854;2024-03-08T00:50:36;101985.34;;;-0.70;75.77
55044;BME280;54902;50.420;18.854;2024-03-08T00:51:07;101984.47;;;-0.72;75.78
55044;BME280;54902;50.420;18.854;2024-03-08T00:51:38;101977.33;;;-0.73;75.80
55044;BME280;54902;50.420;18.854;2024-03-08T00:52:09;101966.77;;;-0.82;75.78
55044;BME280;54902;50.420;18.854;2024-03-08T00:52:41;101978.28;;;-0.74;75.80
55044;BME280;54902;50.420;18.854;2024-03-08T00:53:12;101983.64;;;-0.74;75.80
55044;BME280;54902;50.420;18.854;2024-03-08T00:53:43;101981.86;;;-0.75;75.81
55044;BME280;54902;50.420;18.854;2024-03-08T00:54:14;101980.98;;;-0.77;75.81
55044;BME280;54902;50.420;18.854;2024-03-08T00:54:47;101978.30;;;-0.77;75.83
55044;BME280;54902;50.420;18.854;2024-03-08T00:55:17;101977.47;;;-0.79;75.82
55044;BME280;54902;50.420;18.854;2024-03-08T00:55:48;101978.34;;;-0.79;75.84
55044;BME280;54902;50.420;18.854;2024-03-08T00:56:19;101974.82;;;-0.81;75.84
55044;BME280;54902;50.420;18.854;2024-03-08T00:56:50;101979.28;;;-0.81;75.86
55044;BME280;54902;50.420;18.854;2024-03-08T00:57:21;101973.92;;;-0.81;75.87
55044;BME280;54902;50.420;18.854;2024-03-08T00:57:52;101975.77;;;-0.83;75.88
55044;BME280;54902;50.420;18.854;2024-03-08T00:58:24;101977.50;;;-0.82;75.87
55044;BME280;54902;50.420;18.854;2024-03-08T00:58:55;101973.98;;;-0.84;75.89
55044;BME280;54902;50.420;18.854;2024-03-08T00:59:25;101973.98;;;-0.84;75.89
55044;BME280;54902;50.420;18.854;2024-03-08T00:59:56;101974.02;;;-0.86;75.90
55044;BME280;54902;50.420;18.854;2024-03-08T01:00:27;101975.80;;;-0.86;75.92
55044;BME280;54902;50.420;18.854;2024-03-08T01:00:58;101974.92;;;-0.87;75.93
55044;BME280;54902;50.420;18.854;2024-03-08T01:01:30;101973.12;;;-0.86;75.95
55044;BME280;54902;50.420;18.854;2024-03-08T01:02:02;101973.14;;;-0.88;75.96
55044;BME280;54902;50.420;18.854;2024-03-08T01:02:32;101979.45;;;-0.89;75.99
55044;BME280;54902;50.420;18.854;2024-03-08T01:03:06;101967.82;;;-0.89;75.95
55044;BME280;54902;50.420;18.854;2024-03-08T01:03:37;101976.77;;;-0.89;75.99
55044;BME280;54902;50.420;18.854;2024-03-08T01:04:08;101968.73;;;-0.90;76.01
55044;BME280;54902;50.420;18.854;2024-03-08T01:04:38;101972.34;;;-0.91;76.02
55044;BME280;54902;50.420;18.854;2024-03-08T01:05:09;101972.34;;;-0.91;76.03
55044;BME280;54902;50.420;18.854;2024-03-08T01:05:40;101970.56;;;-0.92;76.02
55044;BME280;54902;50.420;18.854;2024-03-08T01:06:11;101970.56;;;-0.92;76.02
55044;BME280;54902;50.420;18.854;2024-03-08T01:06:42;101970.56;;;-0.92;76.00
55044;BME280;54902;50.420;18.854;2024-03-08T01:07:17;101968.79;;;-0.93;76.00
55044;BME280;54902;50.420;18.854;2024-03-08T01:07:48;101971.47;;;-0.93;75.99
55044;BME280;54902;50.420;18.854;2024-03-08T01:08:20;101958.13;;;-0.96;75.96
55044;BME280;54902;50.420;18.854;2024-03-08T01:08:51;101965.27;;;-0.95;75.95
55044;BME280;54902;50.420;18.854;2024-03-08T01:09:24;101963.49;;;-0.96;75.94
55044;BME280;54902;50.420;18.854;2024-03-08T01:09:55;101968.89;;;-0.98;75.94
55044;BME280;54902;50.420;18.854;2024-03-08T01:10:26;101967.08;;;-0.97;75.92
55044;BME280;54902;50.420;18.854;2024-03-08T01:10:57;101964.44;;;-0.99;75.92
55044;BME280;54902;50.420;18.854;2024-03-08T01:11:28;101960.88;;;-1.01;75.92
55044;BME280;54902;50.420;18.854;2024-03-08T01:11:59;101956.41;;;-1.00;75.90
55044;BME280;54902;50.420;18.854;2024-03-08T01:12:31;101960.00;;;-1.01;75.92
55044;BME280;54902;50.420;18.854;2024-03-08T01:13:02;101960.00;;;-1.01;75.95
55044;BME280;54902;50.420;18.854;2024-03-08T01:13:33;101959.14;;;-1.02;75.95
55044;BME280;54902;50.420;18.854;2024-03-08T01:14:04;101957.35;;;-1.03;75.95
55044;BME280;54902;50.420;18.854;2024-03-08T01:14:35;101959.14;;;-1.03;75.95
55044;BME280;54902;50.420;18.854;2024-03-08T01:15:06;101954.70;;;-1.04;75.96
55044;BME280;54902;50.420;18.854;2024-03-08T01:15:37;101953.80;;;-1.05;75.96
55044;BME280;54902;50.420;18.854;2024-03-08T01:16:11;101955.62;;;-1.05;75.95
55044;BME280;54902;50.420;18.854;2024-03-08T01:16:42;101958.33;;;-1.07;75.96
55044;BME280;54902;50.420;18.854;2024-03-08T01:17:13;101956.52;;;-1.06;75.95
55044;BME280;54902;50.420;18.854;2024-03-08T01:17:44;101958.30;;;-1.05;75.94
55044;BME280;54902;50.420;18.854;2024-03-08T01:18:15;101956.52;;;-1.06;75.96
55044;BME280;54902;50.420;18.854;2024-03-08T01:18:47;101955.68;;;-1.08;75.96
55044;BME280;54902;50.420;18.854;2024-03-08T01:19:18;101956.55;;;-1.08;75.96
55044;BME280;54902;50.420;18.854;2024-03-08T01:19:48;101953.03;;;-1.10;75.94
55044;BME280;54902;50.420;18.854;2024-03-08T01:20:19;101951.22;;;-1.09;75.94
55044;BME280;54902;50.420;18.854;2024-03-08T01:20:51;101949.45;;;-1.10;75.92
55044;BME280;54902;50.420;18.854;2024-03-08T01:21:22;101958.39;;;-1.11;75.94
55044;BME280;54902;50.420;18.854;2024-03-08T01:21:53;101953.03;;;-1.11;75.95
55044;BME280;54902;50.420;18.854;2024-03-08T01:22:27;101952.16;;;-1.12;75.93
55044;BME280;54902;50.420;18.854;2024-03-08T01:23:00;101959.33;;;-1.12;75.94
55044;BME280;54902;50.420;18.854;2024-03-08T01:23:31;101951.29;;;-1.12;75.96
55044;BME280;54902;50.420;18.854;2024-03-08T01:24:02;101945.96;;;-1.14;75.95
55044;BME280;54902;50.420;18.854;2024-03-08T01:24:33;101951.32;;;-1.14;75.98
55044;BME280;54902;50.420;18.854;2024-03-08T01:25:05;101946.86;;;-1.15;75.99
55044;BME280;54902;50.420;18.854;2024-03-08T01:25:36;101952.25;;;-1.16;75.99
55044;BME280;54902;50.420;18.854;2024-03-08T01:26:07;101948.64;;;-1.15;76.02
55044;BME280;54902;50.420;18.854;2024-03-08T01:26:38;101948.67;;;-1.17;76.02
55044;BME280;54902;50.420;18.854;2024-03-08T01:27:09;101950.48;;;-1.17;76.03
55044;BME280;54902;50.420;18.854;2024-03-08T01:27:40;101948.67;;;-1.17;76.04
55044;BME280;54902;50.420;18.854;2024-03-08T01:28:11;101948.67;;;-1.17;76.04
55044;BME280;54902;50.420;18.854;2024-03-08T01:28:43;101947.80;;;-1.17;76.04
55044;BME280;54902;50.420;18.854;2024-03-08T01:29:14;101943.34;;;-1.18;76.07
55044;BME280;54902;50.420;18.854;2024-03-08T01:29:45;101946.93;;;-1.19;76.07
55044;BME280;54902;50.420;18.854;2024-03-08T01:30:16;101938.88;;;-1.19;76.10
55044;BME280;54902;50.420;18.854;2024-03-08T01:30:47;101943.38;;;-1.19;76.11
55044;BME280;54902;50.420;18.854;2024-03-08T01:31:25;101946.05;;;-1.19;76.13
55044;BME280;54902;50.420;18.854;2024-03-08T01:31:56;101948.73;;;-1.19;76.15
55044;BME280;54902;50.420;18.854;2024-03-08T01:32:27;101947.87;;;-1.20;76.17
55044;BME280;54902;50.420;18.854;2024-03-08T01:32:58;101943.41;;;-1.21;76.18
55044;BME280;54902;50.420;18.854;2024-03-08T01:33:29;101933.59;;;-1.22;76.20
55044;BME280;54902;50.420;18.854;2024-03-08T01:34:01;101938.95;;;-1.22;76.23
55044;BME280;54902;50.420;18.854;2024-03-08T01:34:32;101945.19;;;-1.21;76.26
55044;BME280;54902;50.420;18.854;2024-03-08T01:35:04;101941.63;;;-1.22;76.36
55044;BME280;54902;50.420;18.854;2024-03-08T01:35:35;101940.76;;;-1.22;76.27
55044;BME280;54902;50.420;18.854;2024-03-08T01:36:06;101941.66;;;-1.23;76.31
55044;BME280;54902;50.420;18.854;2024-03-08T01:36:37;101941.63;;;-1.22;76.35
55044;BME280;54902;50.420;18.854;2024-03-08T01:37:10;101934.49;;;-1.23;76.36
55044;BME280;54902;50.420;18.854;2024-03-08T01:37:41;101940.80;;;-1.24;76.37
55044;BME280;54902;50.420;18.854;2024-03-08T01:38:12;101937.18;;;-1.23;76.41
55044;BME280;54902;50.420;18.854;2024-03-08T01:38:43;101940.80;;;-1.24;76.38
55044;BME280;54902;50.420;18.854;2024-03-08T01:39:14;101936.30;;;-1.23;76.41
55044;BME280;54902;50.420;18.854;2024-03-08T01:39:45;101937.18;;;-1.23;76.43
55044;BME280;54902;50.420;18.854;2024-03-08T01:40:16;101941.66;;;-1.23;76.43
55044;BME280;54902;50.420;18.854;2024-03-08T01:40:47;101939.88;;;-1.24;76.43
55044;BME280;54902;50.420;18.854;2024-03-08T01:41:19;101933.66;;;-1.25;76.46
55044;BME280;54902;50.420;18.854;2024-03-08T01:41:50;101939.88;;;-1.24;76.47
55044;BME280;54902;50.420;18.854;2024-03-08T01:42:21;101935.42;;;-1.24;76.49
55044;BME280;54902;50.420;18.854;2024-03-08T01:42:52;101940.80;;;-1.24;76.50
55044;BME280;54902;50.420;18.854;2024-03-08T01:43:28;101940.80;;;-1.24;76.50
55044;BME280;54902;50.420;18.854;2024-03-08T01:44:00;101933.66;;;-1.25;76.50
55044;BME280;54902;50.420;18.854;2024-03-08T01:44:30;101939.88;;;-1.24;76.52
55044;BME280;54902;50.420;18.854;2024-03-08T01:45:02;101936.33;;;-1.25;76.51
55044;BME280;54902;50.420;18.854;2024-03-08T01:45:34;101933.66;;;-1.25;76.50
55044;BME280;54902;50.420;18.854;2024-03-08T01:46:05;101940.80;;;-1.24;76.50
55044;BME280;54902;50.420;18.854;2024-03-08T01:46:39;101935.42;;;-1.24;76.50
55044;BME280;54902;50.420;18.854;2024-03-08T01:47:10;101938.98;;;-1.23;76.49
55044;BME280;54902;50.420;18.854;2024-03-08T01:47:42;101934.52;;;-1.24;76.50
55044;BME280;54902;50.420;18.854;2024-03-08T01:48:13;101934.49;;;-1.23;76.49
55044;BME280;54902;50.420;18.854;2024-03-08T01:48:45;101942.56;;;-1.24;76.49
55044;BME280;54902;50.420;18.854;2024-03-08T01:49:16;101934.49;;;-1.23;76.50
55044;BME280;54902;50.420;18.854;2024-03-08T01:49:50;101931.81;;;-1.23;76.49
55044;BME280;54902;50.420;18.854;2024-03-08T01:50:21;101935.42;;;-1.24;76.50
55044;BME280;54902;50.420;18.854;2024-03-08T01:50:53;101930.94;;;-1.23;76.52
55044;BME280;54902;50.420;18.854;2024-03-08T01:51:25;101934.49;;;-1.23;76.52
55044;BME280;54902;50.420;18.854;2024-03-08T01:51:56;101930.04;;;-1.22;76.51
55044;BME280;54902;50.420;18.854;2024-03-08T01:52:28;101929.13;;;-1.23;76.51
55044;BME280;54902;50.420;18.854;2024-03-08T01:53:03;101930.07;;;-1.24;76.54
55044;BME280;54902;50.420;18.854;2024-03-08T01:53:35;101928.27;;;-1.23;76.55
55044;BME280;54902;50.420;18.854;2024-03-08T01:54:06;101927.39;;;-1.24;76.55
55044;BME280;54902;50.420;18.854;2024-03-08T01:54:37;101929.13;;;-1.23;76.56
55044;BME280;54902;50.420;18.854;2024-03-08T01:55:08;101930.94;;;-1.23;76.57
55044;BME280;54902;50.420;18.854;2024-03-08T01:55:40;101940.80;;;-1.24;76.57
55044;BME280;54902;50.420;18.854;2024-03-08T01:56:11;101930.07;;;-1.24;76.60
55044;BME280;54902;50.420;18.854;2024-03-08T01:56:44;101930.07;;;-1.24;76.59
55044;BME280;54902;50.420;18.854;2024-03-08T01:57:15;101934.52;;;-1.24;76.60
55044;BME280;54902;50.420;18.854;2024-03-08T01:57:46;101934.49;;;-1.23;76.60
55044;BME280;54902;50.420;18.854;2024-03-08T01:58:17;101930.07;;;-1.24;76.62
55044;BME280;54902;50.420;18.854;2024-03-08T01:58:52;101930.94;;;-1.23;76.60
55044;BME280;54902;50.420;18.854;2024-03-08T01:59:23;101929.17;;;-1.24;76.64
55044;BME280;54902;50.420;18.854;2024-03-08T01:59:55;101928.30;;;-1.25;76.64
55044;BME280;54902;50.420;18.854;2024-03-08T02:00:26;101929.17;;;-1.24;76.67
55044;BME280;54902;50.420;18.854;2024-03-08T02:01:00;101930.94;;;-1.23;76.69
55044;BME280;54902;50.420;18.854;2024-03-08T02:01:35;101935.42;;;-1.24;76.70
55044;BME280;54902;50.420;18.854;2024-03-08T02:02:06;101930.07;;;-1.24;76.69
55044;BME280;54902;50.420;18.854;2024-03-08T02:02:42;101923.81;;;-1.24;76.71
55044;BME280;54902;50.420;18.854;2024-03-08T02:03:15;101927.39;;;-1.24;76.72
55044;BME280;54902;50.420;18.854;2024-03-08T02:03:46;101922.94;;;-1.25;76.74
55044;BME280;54902;50.420;18.854;2024-03-08T02:04:17;101922.03;;;-1.24;76.65
55044;BME280;54902;50.420;18.854;2024-03-08T02:04:48;101928.30;;;-1.25;76.76
55044;BME280;54902;50.420;18.854;2024-03-08T02:05:23;101926.52;;;-1.26;76.78
55044;BME280;54902;50.420;18.854;2024-03-08T02:05:54;101922.94;;;-1.25;76.80
55044;BME280;54902;50.420;18.854;2024-03-08T02:06:25;101924.71;;;-1.24;76.85
55044;BME280;54902;50.420;18.854;2024-03-08T02:06:56;101922.94;;;-1.25;76.87
55044;BME280;54902;50.420;18.854;2024-03-08T02:07:28;101922.94;;;-1.25;76.89
55044;BME280;54902;50.420;18.854;2024-03-08T02:07:59;101923.81;;;-1.24;76.90
55044;BME280;54902;50.420;18.854;2024-03-08T02:08:30;101917.59;;;-1.25;76.91
55044;BME280;54902;50.420;18.854;2024-03-08T02:09:02;101917.59;;;-1.25;76.94
55044;BME280;54902;50.420;18.854;2024-03-08T02:09:37;101917.59;;;-1.25;76.96
55044;BME280;54902;50.420;18.854;2024-03-08T02:10:08;101927.39;;;-1.25;76.98
55044;BME280;54902;50.420;18.854;2024-03-08T02:10:40;101920.30;;;-1.26;76.98
55044;BME280;54902;50.420;18.854;2024-03-08T02:11:13;101917.59;;;-1.25;77.01
55044;BME280;54902;50.420;18.854;2024-03-08T02:11:45;101916.68;;;-1.25;77.02
55044;BME280;54902;50.420;18.854;2024-03-08T02:12:16;101921.16;;;-1.26;77.04
55044;BME280;54902;50.420;18.854;2024-03-08T02:12:47;101920.27;;;-1.25;77.05
55044;BME280;54902;50.420;18.854;2024-03-08T02:13:18;101915.80;;;-1.26;77.16
55044;BME280;54902;50.420;18.854;2024-03-08T02:13:49;101915.80;;;-1.26;77.10
55044;BME280;54902;50.420;18.854;2024-03-08T02:14:20;101921.16;;;-1.26;77.10
55044;BME280;54902;50.420;18.854;2024-03-08T02:14:53;101919.35;;;-1.25;77.15
55044;BME280;54902;50.420;18.854;2024-03-08T02:15:25;101925.65;;;-1.26;77.20
55044;BME280;54902;50.420;18.854;2024-03-08T02:15:58;101921.16;;;-1.26;77.24
55044;BME280;54902;50.420;18.854;2024-03-08T02:16:32;101914.93;;;-1.26;77.24
55044;BME280;54902;50.420;18.854;2024-03-08T02:17:03;101914.93;;;-1.26;77.26
55044;BME280;54902;50.420;18.854;2024-03-08T02:17:35;101924.74;;;-1.27;77.30
55044;BME280;54902;50.420;18.854;2024-03-08T02:18:06;101922.94;;;-1.25;77.33
55044;BME280;54902;50.420;18.854;2024-03-08T02:18:37;101919.35;;;-1.25;77.36
55044;BME280;54902;50.420;18.854;2024-03-08T02:19:10;101915.80;;;-1.26;77.37
55044;BME280;54902;50.420;18.854;2024-03-08T02:19:40;101918.48;;;-1.26;77.36
55044;BME280;54902;50.420;18.854;2024-03-08T02:20:12;101913.99;;;-1.25;77.35
55044;BME280;54902;50.420;18.854;2024-03-08T02:20:44;101915.80;;;-1.26;77.36
55044;BME280;54902;50.420;18.854;2024-03-08T02:21:18;101912.25;;;-1.26;77.36
55044;BME280;54902;50.420;18.854;2024-03-08T02:21:49;101911.34;;;-1.27;77.37
55044;BME280;54902;50.420;18.854;2024-03-08T02:22:20;101917.59;;;-1.25;77.35
55044;BME280;54902;50.420;18.854;2024-03-08T02:22:51;101916.68;;;-1.25;77.37
55044;BME280;54902;50.420;18.854;2024-03-08T02:23:22;101913.13;;;-1.26;77.36
55044;BME280;54902;50.420;18.854;2024-03-08T02:23:55;101917.59;;;-1.25;77.40
55044;BME280;54902;50.420;18.854;2024-03-08T02:24:26;101912.23;;;-1.25;77.41
55044;BME280;54902;50.420;18.854;2024-03-08T02:25:00;101911.31;;;-1.25;77.40
55044;BME280;54902;50.420;18.854;2024-03-08T02:25:33;101915.80;;;-1.26;77.42
55044;BME280;54902;50.420;18.854;2024-03-08T02:26:05;101915.80;;;-1.26;77.44
55044;BME280;54902;50.420;18.854;2024-03-08T02:26:37;101910.45;;;-1.26;77.43
55044;BME280;54902;50.420;18.854;2024-03-08T02:27:08;101908.66;;;-1.27;77.44
55044;BME280;54902;50.420;18.854;2024-03-08T02:27:42;101915.80;;;-1.26;77.45
55044;BME280;54902;50.420;18.854;2024-03-08T02:28:14;101910.45;;;-1.26;77.46
55044;BME280;54902;50.420;18.854;2024-03-08T02:28:45;101921.16;;;-1.26;77.47
55044;BME280;54902;50.420;18.854;2024-03-08T02:29:16;101910.45;;;-1.26;77.46
55044;BME280;54902;50.420;18.854;2024-03-08T02:29:48;101914.93;;;-1.26;77.46
55044;BME280;54902;50.420;18.854;2024-03-08T02:30:18;101910.45;;;-1.26;77.47
55044;BME280;54902;50.420;18.854;2024-03-08T02:30:49;101910.45;;;-1.26;77.46
55044;BME280;54902;50.420;18.854;2024-03-08T02:31:26;101914.93;;;-1.26;77.45
55044;BME280;54902;50.420;18.854;2024-03-08T02:31:57;101914.93;;;-1.26;77.46
55044;BME280;54902;50.420;18.854;2024-03-08T02:32:28;101910.45;;;-1.26;77.47
55044;BME280;54902;50.420;18.854;2024-03-08T02:33:03;101917.59;;;-1.25;77.49
55044;BME280;54902;50.420;18.854;2024-03-08T02:33:34;101915.80;;;-1.26;77.52
55044;BME280;54902;50.420;18.854;2024-03-08T02:34:05;101912.25;;;-1.26;77.53
55044;BME280;54902;50.420;18.854;2024-03-08T02:34:36;101922.03;;;-1.25;77.55
55044;BME280;54902;50.420;18.854;2024-03-08T02:35:06;101916.68;;;-1.25;77.54
55044;BME280;54902;50.420;18.854;2024-03-08T02:35:37;101905.08;;;-1.26;77.58
55044;BME280;54902;50.420;18.854;2024-03-08T02:36:08;101905.95;;;-1.25;77.58
55044;BME280;54902;50.420;18.854;2024-03-08T02:36:39;101915.80;;;-1.26;77.59
55044;BME280;54902;50.420;18.854;2024-03-08T02:37:10;101911.31;;;-1.25;77.58
55044;BME280;54902;50.420;18.854;2024-03-08T02:37:41;101904.20;;;-1.26;77.59
55044;BME280;54902;50.420;18.854;2024-03-08T02:38:15;101905.98;;;-1.27;77.61
55044;BME280;54902;50.420;18.854;2024-03-08T02:38:46;101904.20;;;-1.26;77.61
55044;BME280;54902;50.420;18.854;2024-03-08T02:39:17;101902.40;;;-1.26;77.62
55044;BME280;54902;50.420;18.854;2024-03-08T02:39:50;101903.30;;;-1.27;77.61
55044;BME280;54902;50.420;18.854;2024-03-08T02:40:21;101902.40;;;-1.26;77.63
55044;BME280;54902;50.420;18.854;2024-03-08T02:40:53;101904.20;;;-1.26;77.64
55044;BME280;54902;50.420;18.854;2024-03-08T02:41:24;101909.57;;;-1.26;77.66
55044;BME280;54902;50.420;18.854;2024-03-08T02:41:55;101893.49;;;-1.26;77.66
55044;BME280;54902;50.420;18.854;2024-03-08T02:42:26;101901.53;;;-1.28;77.68
55044;BME280;54902;50.420;18.854;2024-03-08T02:42:57;101903.30;;;-1.27;77.69